Historique des mesures à Cassis (13260), France
Quotidien Résumé Avril 15, 2017 Unités:  US    Métrique   Métrique/US
« Précédent (Jour)
Suivant (Jour) »
Quotidien Hebdomadaire Mensuel Annuel Période au choix
  Maximum: Minimum: Moyenne:
Température: 32 °F 60.1 °F 64.6 °F
Point de rosée: 32 °F 42.8 °F 46.2 °F
Humidité: Humidity % 43 % 49 %
Vitesse du vent: WindSpeedKMH mph 4.0 mph 14.6 mph
Rafales: WindSpeedGustKMH mph - -
Vent:- - South
Pression: 0 in 29.8 in -
Précipitations: 0 in    
Historical Graphs
 
 
Mesures pour : Avril 15, 2017
Heure Temperature Point de rosée Pression Vent Vitesse du vent Rafales Humidité Pluie (par heure) Conditions
32 °F 32 °F 0 in Calm     Humidity % 0 in SoftwareType W/m2
00:11 66.7 °F 48 °F 29.8 in North 4.0 mph 4.0 mph 51 % 0 in open2300-1.11 W/m2
01:11 66.9 °F 47.1 °F 29.8 in NNW 6.1 mph 6.1 mph 49 % 0 in open2300-1.11 W/m2
02:11 67.1 °F 46.2 °F 29.8 in NW 13.0 mph 13.0 mph 47 % 0 in open2300-1.11 W/m2
03:11 66.6 °F 46.8 °F 29.8 in NW 6.8 mph 10.5 mph 49 % 0 in open2300-1.11 W/m2
04:11 64.8 °F 46.8 °F 29.9 in North 9.7 mph 16.6 mph 52 % 0 in open2300-1.11 W/m2
05:11 64.2 °F 46 °F 29.8 in North 14.0 mph 21.9 mph 52 % 0 in open2300-1.11 W/m2
06:11 63.1 °F 45.7 °F 29.8 in NNE 11.9 mph 25.3 mph 53 % 0 in open2300-1.11 W/m2
07:11 63 °F 45 °F 29.9 in North 13.7 mph 23.8 mph 52 % 0 in open2300-1.11 W/m2
08:10 62.8 °F 45.3 °F 29.9 in NNE 11.9 mph 11.9 mph 53 % 0 in open2300-1.11 W/m2
09:11 63.5 °F 45.5 °F 29.9 in NNW 13.4 mph 13.4 mph 52 % 0 in open2300-1.11 W/m2
10:11 64.9 °F 46.2 °F 29.9 in North 12.2 mph 23.8 mph 51 % 0 in open2300-1.11 W/m2
11:11 66.7 °F 46.4 °F 29.9 in NNE 19.1 mph 31.7 mph 48 % 0 in open2300-1.11 W/m2
12:11 69.6 °F 47.1 °F 29.9 in NE 8.2 mph 18.0 mph 45 % 0 in open2300-1.11 W/m2
13:11 70.9 °F 47.1 °F 29.9 in NW 7.9 mph 14.0 mph 43 % 0 in open2300-1.11 W/m2
14:11 70.7 °F 47.7 °F 29.9 in NNW 25.3 mph 25.3 mph 44 % 0 in open2300-1.11 W/m2
15:11 68.2 °F 50.7 °F 29.9 in NW 29.4 mph 29.4 mph 54 % 0 in open2300-1.11 W/m2
16:11 67.3 °F 51.4 °F 29.9 in WNW 15.8 mph 30.6 mph 57 % 0 in open2300-1.11 W/m2
17:11 67.8 °F 51.4 °F 29.8 in WNW 11.6 mph 38.9 mph 56 % 0 in open2300-1.11 W/m2
18:11 66 °F 51.8 °F 29.8 in NW 30.6 mph 30.6 mph 60 % 0 in open2300-1.11 W/m2
19:11 67.3 °F 46.9 °F 29.8 in West 7.6 mph 10.8 mph 48 % 0 in open2300-1.11 W/m2
20:11 66.6 °F 45.1 °F 29.8 in NNW 13.4 mph 36.7 mph 46 % 0 in open2300-1.11 W/m2
21:11 64.2 °F 44.1 °F 29.9 in North 24.8 mph 24.8 mph 48 % 0 in open2300-1.11 W/m2
22:11 62.2 °F 44.2 °F 29.9 in NNE 22.4 mph 24.1 mph 52 % 0 in open2300-1.11 W/m2
23:11 60.1 °F 42.8 °F 29.9 in NW 32.8 mph 32.8 mph 53 % 0 in open2300-1.11 W/m2
Observations météo à CASSIS
WU-History script by Weather Underground - 1 mb